Decoded Metar for KHIB (HIBBING in MN, USA) (IATA:HIB) | Meteo·Mobile Aviation Weather
aviador You're here:

KHIB Decoded Metar

HIBBING in MN, USA
Report Time2018-09-21 04:13:00
UTC Time2018-09-21 04:29:31
Flight Rules ifr IFR
Wind010° at 06 kt
W.Decomp.*RWY 04: 5.1 kt HW 3.2 kt LCW
RWY 31: 3.2 kt HW 5.1 kt RCW
W.Rank010° ranks 22
Current wind is below 010° avg. (7.0)
Visibility4023 m
Phenomena:Light Rain
Mist
Clouds:Scattered 005 Hf
Overcast 017 Hf
Expected CloudBase > 400 ft AGL from Temp-Dew spread
Ceiling1,700 ft
Temp11°C (ISA -1)
Dew Point10°C (94% RH)
AAT8.9°C
QNH1000 hPa
Density Alt1,811 ft
Elevation1,352 ft
Report Wrong Elevation
Raw Report
KHIB 210413Z AUTO 01006KT 2 1/2SM -RA BR SCT005 OVC017 11/10 A2953
RMK AO2 P0002 T01060100=

Extra information for KHIB:More info

Metar Taf Metar & Taf Last 4 Metars F.Rules Stats Wind Profile Meteogram Temp Stats Airport Information Weather charts Add Link Nearby VenuesMetar ALERT Operation Metar Decoded Social comments

AIRNAV info for KHIB